Time;durP1;ratioP1;P1;durP2;ratioP2;P2;SDS_P1;SDS_P2;PMS_P1;PMS_P2;Temp;Humidity;BMP_temperature;BMP_pressure;BME280_temperature;BME280_humidity;BME280_pressure;Samples;Min_cycle;Max_cycle;Signal;HPM_P1;HPM_P2
2023/07/27 00:00:52;;;;;;;8.77;6.13;;;15.70;99.90;;;;;;4975926;28;20122;-83
2023/07/27 00:03:19;;;;;;;8.05;6.15;;;15.70;99.90;;;;;;4971992;28;20440;-83
2023/07/27 00:05:45;;;;;;;8.30;6.78;;;15.70;99.90;;;;;;4986268;28;20101;-83
2023/07/27 00:08:10;;;;;;;8.63;6.85;;;15.70;99.90;;;;;;4984824;28;20373;-83
2023/07/27 00:10:36;;;;;;;10.70;7.05;;;15.70;99.90;;;;;;4988299;28;20512;-83
2023/07/27 00:13:03;;;;;;;8.98;6.95;;;15.70;99.90;;;;;;4985276;28;20042;-83
2023/07/27 00:15:28;;;;;;;10.07;7.10;;;15.70;99.90;;;;;;4985093;28;20038;-83
2023/07/27 00:17:54;;;;;;;9.32;7.20;;;15.60;99.90;;;;;;4980550;28;20053;-83
2023/07/27 00:20:23;;;;;;;8.32;6.82;;;15.70;99.90;;;;;;4985579;28;20398;-83
2023/07/27 00:22:49;;;;;;;8.90;6.90;;;15.70;99.90;;;;;;4985044;28;20050;-83
2023/07/27 00:25:15;;;;;;;9.43;6.80;;;15.70;99.90;;;;;;4971342;28;20044;-83
2023/07/27 00:27:40;;;;;;;10.32;7.05;;;15.70;99.90;;;;;;4979131;28;20046;-84
2023/07/27 00:30:07;;;;;;;7.93;6.13;;;15.80;99.90;;;;;;4963298;28;20537;-83
2023/07/27 00:32:32;;;;;;;8.70;6.80;;;15.80;99.90;;;;;;4978673;28;20081;-83
2023/07/27 00:34:58;;;;;;;8.18;6.10;;;15.80;99.90;;;;;;4977003;28;20085;-82
2023/07/27 00:37:25;;;;;;;8.63;6.63;;;15.80;99.90;;;;;;4983279;28;20093;-84
2023/07/27 00:39:54;;;;;;;8.55;6.03;;;15.80;99.90;;;;;;4978896;28;20035;-80
2023/07/27 00:42:19;;;;;;;8.05;6.13;;;15.80;99.90;;;;;;4985856;28;20100;-79
2023/07/27 00:44:45;;;;;;;7.88;6.10;;;15.80;99.90;;;;;;4962097;28;20495;-83
2023/07/27 00:47:11;;;;;;;8.13;6.10;;;15.80;99.90;;;;;;4979986;28;20101;-81
2023/07/27 00:49:36;;;;;;;7.32;5.88;;;15.80;99.90;;;;;;4982906;28;20046;-84
2023/07/27 00:52:07;;;;;;;7.65;6.13;;;15.80;99.90;;;;;;4984503;28;20043;-82
2023/07/27 00:54:34;;;;;;;7.68;6.10;;;15.80;99.90;;;;;;4983776;28;20058;-82
2023/07/27 00:57:00;;;;;;;9.38;6.45;;;15.80;99.90;;;;;;4972237;28;20046;-84
2023/07/27 00:59:26;;;;;;;8.30;6.43;;;15.80;99.90;;;;;;4988220;28;20054;-83
2023/07/27 01:01:52;;;;;;;8.10;6.70;;;15.80;99.90;;;;;;4968056;28;20062;-82
2023/07/27 01:04:18;;;;;;;8.68;6.80;;;15.90;99.90;;;;;;4968991;28;20039;-84
2023/07/27 01:06:44;;;;;;;9.88;6.60;;;15.80;99.90;;;;;;4968759;28;20050;-86
2023/07/27 01:09:10;;;;;;;9.85;6.85;;;15.80;99.90;;;;;;4980133;28;20066;-83
2023/07/27 01:11:50;;;;;;;8.48;6.63;;;15.80;99.90;;;;;;4984147;28;20050;-81
2023/07/27 01:14:40;;;;;;;10.50;6.85;;;15.80;99.90;;;;;;4969168;28;20053;-86
2023/07/27 01:17:09;;;;;;;9.63;7.20;;;15.80;99.90;;;;;;4970039;28;20122;-82
2023/07/27 01:19:47;;;;;;;9.07;6.88;;;15.70;99.90;;;;;;4965667;28;20394;-82
2023/07/27 01:22:16;;;;;;;10.20;6.75;;;15.70;99.90;;;;;;4966343;28;20460;-87
2023/07/27 01:25:15;;;;;;;7.25;6.13;;;15.70;99.90;;;;;;4983228;28;20050;-86
2023/07/27 01:27:59;;;;;;;9.15;6.72;;;15.70;99.90;;;;;;4967808;28;20055;-77
2023/07/27 01:30:28;;;;;;;7.93;6.65;;;15.70;99.90;;;;;;4982214;28;20054;-88
2023/07/27 01:33:01;;;;;;;9.38;6.85;;;15.70;99.90;;;;;;4981164;28;20084;-83
2023/07/27 01:35:32;;;;;;;8.82;6.53;;;15.70;99.90;;;;;;4968416;28;20448;-83
2023/07/27 01:38:03;;;;;;;10.00;7.30;;;15.70;99.90;;;;;;4968132;28;20046;-81
2023/07/27 01:40:30;;;;;;;9.65;7.10;;;15.70;99.90;;;;;;4986185;28;20142;-80
2023/07/27 01:42:56;;;;;;;7.82;6.43;;;15.60;99.90;;;;;;4985477;28;20118;-79
2023/07/27 01:45:23;;;;;;;9.32;6.35;;;15.60;99.90;;;;;;4982449;28;20045;-83
2023/07/27 01:47:51;;;;;;;9.50;6.93;;;15.60;99.90;;;;;;4970526;28;20081;-86
2023/07/27 01:50:17;;;;;;;8.73;6.95;;;15.60;99.90;;;;;;4968298;28;20041;-83
2023/07/27 01:52:45;;;;;;;8.97;6.83;;;15.50;99.90;;;;;;4980672;28;20057;-82
2023/07/27 01:55:15;;;;;;;8.85;7.07;;;15.50;99.90;;;;;;4983352;28;20516;-84
2023/07/27 01:57:42;;;;;;;9.68;7.20;;;15.50;99.90;;;;;;4979955;28;20051;-81
2023/07/27 02:00:09;;;;;;;8.07;6.45;;;15.50;99.90;;;;;;4965044;28;20053;-80
2023/07/27 02:02:36;;;;;;;10.23;7.03;;;15.40;99.90;;;;;;4984369;28;20077;-78
2023/07/27 02:05:01;;;;;;;9.60;7.55;;;15.40;99.90;;;;;;4983206;28;20962;-83
2023/07/27 02:07:27;;;;;;;9.70;7.20;;;15.40;99.90;;;;;;4984320;28;20046;-82
2023/07/27 02:09:52;;;;;;;8.27;7.13;;;15.40;99.90;;;;;;4963510;28;20146;-80
2023/07/27 02:12:30;;;;;;;9.18;7.47;;;15.40;99.90;;;;;;4982681;28;20119;-81
2023/07/27 02:15:10;;;;;;;9.40;7.40;;;15.40;99.90;;;;;;4982064;28;20034;-80
2023/07/27 02:17:44;;;;;;;10.13;7.30;;;15.30;99.90;;;;;;4983204;28;20062;-81
2023/07/27 02:20:12;;;;;;;10.50;7.82;;;15.30;99.90;;;;;;4982069;28;20034;-83
2023/07/27 02:22:40;;;;;;;11.85;8.25;;;15.30;99.90;;;;;;4964463;28;20409;-81
2023/07/27 02:25:06;;;;;;;10.02;7.90;;;15.30;99.90;;;;;;4981337;28;20101;-84
2023/07/27 02:27:32;;;;;;;10.87;7.77;;;15.30;99.90;;;;;;4985718;28;20073;-82
2023/07/27 02:29:59;;;;;;;9.98;8.00;;;15.30;99.90;;;;;;4978245;28;20114;-83
2023/07/27 02:32:25;;;;;;;8.88;7.43;;;15.30;99.90;;;;;;4988954;28;20050;-80
2023/07/27 02:34:51;;;;;;;9.02;7.85;;;15.20;99.90;;;;;;4990145;28;20454;-83
2023/07/27 02:37:16;;;;;;;9.25;7.80;;;15.20;99.90;;;;;;4989106;28;20389;-86
2023/07/27 02:39:42;;;;;;;10.38;8.07;;;15.20;99.90;;;;;;4979446;28;20043;-81
2023/07/27 02:42:08;;;;;;;10.65;7.93;;;15.20;99.90;;;;;;4983833;28;20035;-82
2023/07/27 02:44:33;;;;;;;10.82;8.70;;;15.20;99.90;;;;;;4982708;28;20393;-82
2023/07/27 02:46:59;;;;;;;10.73;8.48;;;15.20;99.90;;;;;;4987742;28;20654;-81
2023/07/27 02:49:25;;;;;;;9.27;7.65;;;15.20;99.90;;;;;;4973186;28;20101;-77
2023/07/27 02:51:50;;;;;;;9.82;8.50;;;15.20;99.90;;;;;;4973963;28;20058;-82
2023/07/27 02:54:16;;;;;;;10.48;8.05;;;15.30;99.90;;;;;;4988743;28;20646;-80
2023/07/27 02:56:42;;;;;;;10.35;8.75;;;15.30;99.90;;;;;;4971753;28;20041;-82
2023/07/27 02:59:07;;;;;;;11.57;8.93;;;15.30;99.90;;;;;;4972399;28;20453;-78
2023/07/27 03:01:33;;;;;;;13.18;10.88;;;15.30;99.90;;;;;;4983069;28;20038;-80
2023/07/27 03:03:59;;;;;;;15.07;13.57;;;15.30;99.90;;;;;;4973790;28;20153;-81
2023/07/27 03:06:24;;;;;;;15.18;12.75;;;15.30;99.90;;;;;;4980146;28;20133;-83
2023/07/27 03:08:50;;;;;;;13.52;10.45;;;15.30;99.90;;;;;;4986762;28;20035;-76
2023/07/27 03:11:16;;;;;;;11.68;9.23;;;15.30;99.90;;;;;;4979857;28;20039;-79
2023/07/27 03:13:41;;;;;;;11.48;8.60;;;15.40;99.90;;;;;;4981700;28;20065;-81
2023/07/27 03:16:07;;;;;;;11.43;8.77;;;15.40;99.90;;;;;;4992082;28;20038;-81
2023/07/27 03:18:33;;;;;;;11.05;8.52;;;15.40;99.90;;;;;;4980054;28;20480;-83
2023/07/27 03:21:05;;;;;;;12.30;8.43;;;15.30;99.90;;;;;;4989225;28;20477;-83
2023/07/27 03:23:31;;;;;;;11.07;9.10;;;15.40;99.90;;;;;;4981826;28;20566;-80
2023/07/27 03:25:56;;;;;;;11.80;8.15;;;15.30;99.90;;;;;;4974309;28;20117;-80
2023/07/27 03:28:22;;;;;;;11.45;8.52;;;15.30;99.90;;;;;;4979208;28;20046;-79
2023/07/27 03:30:48;;;;;;;10.82;8.82;;;15.30;99.90;;;;;;4973744;28;20121;-80
2023/07/27 03:33:13;;;;;;;11.98;9.05;;;15.30;99.90;;;;;;4974620;28;20046;-79
2023/07/27 03:35:39;;;;;;;9.82;8.75;;;15.30;99.90;;;;;;4980622;28;20054;-79
2023/07/27 03:38:05;;;;;;;10.93;9.18;;;15.30;99.90;;;;;;4987358;28;20507;-79
2023/07/27 03:40:31;;;;;;;10.10;8.98;;;15.30;99.90;;;;;;4989154;28;20042;-80
2023/07/27 03:42:56;;;;;;;11.23;8.80;;;15.30;99.90;;;;;;4979029;28;20484;-79
2023/07/27 03:45:22;;;;;;;11.80;9.45;;;15.20;99.90;;;;;;4989195;28;20066;-80
2023/07/27 03:47:48;;;;;;;10.20;8.85;;;15.30;99.90;;;;;;4977377;28;20050;-79
2023/07/27 03:50:13;;;;;;;10.57;9.18;;;15.30;99.90;;;;;;4973080;28;20079;-80
2023/07/27 03:52:40;;;;;;;11.25;8.98;;;15.30;99.90;;;;;;4978379;28;20042;-79
2023/07/27 03:55:06;;;;;;;11.27;8.40;;;15.20;99.90;;;;;;4965101;28;20065;-78
2023/07/27 03:57:34;;;;;;;11.50;8.48;;;15.30;99.90;;;;;;4986166;28;20089;-79
2023/07/27 04:00:00;;;;;;;11.00;8.98;;;15.20;99.90;;;;;;4971210;28;20470;-80
2023/07/27 04:02:27;;;;;;;12.15;8.68;;;15.20;99.90;;;;;;4968371;28;20096;-80
2023/07/27 04:04:53;;;;;;;11.02;9.85;;;15.20;99.90;;;;;;4969685;28;20049;-80
2023/07/27 04:07:19;;;;;;;10.77;8.87;;;15.20;99.90;;;;;;4986484;28;20055;-80
2023/07/27 04:09:45;;;;;;;11.18;9.00;;;15.20;99.90;;;;;;4986687;28;20042;-80
2023/07/27 04:12:11;;;;;;;11.77;9.77;;;15.20;99.90;;;;;;4978501;28;20525;-80
2023/07/27 04:14:37;;;;;;;10.52;8.48;;;15.20;99.90;;;;;;4964958;28;20065;-80
2023/07/27 04:17:03;;;;;;;10.68;9.55;;;15.20;99.90;;;;;;4988314;28;20113;-80
2023/07/27 04:19:29;;;;;;;12.55;9.88;;;15.20;99.90;;;;;;4981073;28;20053;-80
2023/07/27 04:21:55;;;;;;;12.07;10.20;;;15.20;99.90;;;;;;4962582;28;20104;-81
2023/07/27 04:24:21;;;;;;;11.77;10.13;;;15.30;99.90;;;;;;4986733;28;20038;-80
2023/07/27 04:26:46;;;;;;;11.27;9.73;;;15.20;99.90;;;;;;4976317;28;20038;-80
2023/07/27 04:29:12;;;;;;;11.48;10.27;;;15.20;99.90;;;;;;4986804;28;20039;-83
2023/07/27 04:31:38;;;;;;;11.68;10.07;;;15.30;99.90;;;;;;4967373;28;20129;-78
2023/07/27 04:34:04;;;;;;;11.32;9.88;;;15.30;99.90;;;;;;4987143;28;20065;-78
2023/07/27 04:36:30;;;;;;;11.80;10.52;;;15.20;99.90;;;;;;4983599;28;20049;-82
2023/07/27 04:38:56;;;;;;;13.35;10.95;;;15.20;99.90;;;;;;4969762;28;20050;-78
2023/07/27 04:41:23;;;;;;;13.48;11.20;;;15.20;99.90;;;;;;4983134;28;20043;-78
2023/07/27 04:43:48;;;;;;;14.88;12.45;;;15.20;99.90;;;;;;4984042;28;20050;-80
2023/07/27 04:46:14;;;;;;;16.35;14.48;;;15.20;99.90;;;;;;4972204;28;20047;-77
2023/07/27 04:48:40;;;;;;;27.67;22.45;;;15.20;99.90;;;;;;4982013;28;20114;-80
2023/07/27 04:51:06;;;;;;;38.67;32.40;;;15.20;99.90;;;;;;4974520;28;20053;-78
2023/07/27 04:53:31;;;;;;;36.38;32.22;;;15.20;99.90;;;;;;4984373;28;20053;-79
2023/07/27 04:55:57;;;;;;;36.58;32.70;;;15.20;99.90;;;;;;4972831;28;20098;-79
2023/07/27 04:58:23;;;;;;;44.97;40.55;;;15.20;99.90;;;;;;4966473;28;20476;-79
2023/07/27 05:00:53;;;;;;;47.22;42.80;;;15.20;99.90;;;;;;4964675;28;20054;-77
2023/07/27 05:03:19;;;;;;;40.78;36.95;;;15.20;99.90;;;;;;4969362;28;20046;-77
2023/07/27 05:05:45;;;;;;;36.80;33.22;;;15.30;99.90;;;;;;4968940;28;20474;-76
2023/07/27 05:08:10;;;;;;;29.75;26.85;;;15.30;99.90;;;;;;4981148;28;20541;-76
2023/07/27 05:10:39;;;;;;;18.92;16.98;;;15.30;99.90;;;;;;4965894;28;20626;-76
2023/07/27 05:13:05;;;;;;;15.55;12.40;;;15.30;99.90;;;;;;4980321;28;20042;-76
2023/07/27 05:15:31;;;;;;;12.85;10.63;;;15.30;99.90;;;;;;4969929;28;20046;-76
2023/07/27 05:17:57;;;;;;;12.40;9.95;;;15.30;99.90;;;;;;4984237;28;20497;-76
2023/07/27 05:20:23;;;;;;;11.27;9.70;;;15.30;99.90;;;;;;4981230;28;20039;-76
2023/07/27 05:22:48;;;;;;;13.40;10.80;;;15.40;99.90;;;;;;4961492;28;20049;-76
2023/07/27 05:25:14;;;;;;;12.73;10.55;;;15.40;99.90;;;;;;4975509;28;20046;-73
2023/07/27 05:27:40;;;;;;;14.45;10.80;;;15.40;99.90;;;;;;4971264;28;20142;-80
2023/07/27 05:30:06;;;;;;;13.20;10.57;;;15.40;99.90;;;;;;4980572;28;20042;-76
2023/07/27 05:32:32;;;;;;;12.13;10.85;;;15.40;99.90;;;;;;4978185;28;20050;-76
2023/07/27 05:34:58;;;;;;;13.73;11.05;;;15.40;99.90;;;;;;4973925;28;20049;-76
2023/07/27 05:37:23;;;;;;;11.85;10.65;;;15.40;99.90;;;;;;4968681;28;20050;-76
2023/07/27 05:39:49;;;;;;;12.07;10.77;;;15.40;99.90;;;;;;4959656;28;20731;-76
2023/07/27 05:42:15;;;;;;;11.57;10.38;;;15.40;99.90;;;;;;4978805;28;20078;-76
2023/07/27 05:44:40;;;;;;;14.52;12.07;;;15.50;99.90;;;;;;4968785;28;20133;-76
2023/07/27 05:47:06;;;;;;;12.05;10.63;;;15.50;99.90;;;;;;4968521;28;20038;-76
2023/07/27 05:49:32;;;;;;;12.93;11.63;;;15.50;99.90;;;;;;4980896;28;20505;-76
2023/07/27 05:51:58;;;;;;;12.43;10.90;;;15.50;99.90;;;;;;4965241;28;20117;-76
2023/07/27 05:54:23;;;;;;;15.18;12.68;;;15.50;99.90;;;;;;4987542;28;20038;-76
2023/07/27 05:56:49;;;;;;;14.93;13.13;;;15.50;99.90;;;;;;4987347;28;20041;-76
2023/07/27 05:59:15;;;;;;;13.90;12.40;;;15.50;99.90;;;;;;4989066;28;20054;-76
2023/07/27 06:01:40;;;;;;;13.82;12.43;;;15.50;99.90;;;;;;4988465;28;20085;-76
2023/07/27 06:04:06;;;;;;;15.25;13.65;;;15.50;99.90;;;;;;4969320;28;20116;-76
2023/07/27 06:06:32;;;;;;;15.73;14.13;;;15.50;99.90;;;;;;4963229;28;20569;-76
2023/07/27 06:08:58;;;;;;;16.38;14.68;;;15.50;99.90;;;;;;4957992;28;20057;-76
2023/07/27 06:11:23;;;;;;;14.93;13.13;;;15.50;99.90;;;;;;4981672;28;20050;-76
2023/07/27 06:13:49;;;;;;;16.42;14.55;;;15.60;99.90;;;;;;4965599;28;20143;-76
2023/07/27 06:16:16;;;;;;;16.35;14.05;;;15.60;99.90;;;;;;4981352;28;21070;-76
2023/07/27 06:18:42;;;;;;;16.17;14.45;;;15.60;99.90;;;;;;4982524;28;20043;-75
2023/07/27 06:21:07;;;;;;;17.60;14.57;;;15.60;99.90;;;;;;4988767;28;20034;-76
2023/07/27 06:23:33;;;;;;;16.90;15.10;;;15.60;99.90;;;;;;4989909;28;20121;-76
2023/07/27 06:25:59;;;;;;;14.90;13.05;;;15.60;99.90;;;;;;4987767;28;20066;-76
2023/07/27 06:28:24;;;;;;;16.98;14.73;;;15.60;99.90;;;;;;4968455;28;20054;-76
2023/07/27 06:30:50;;;;;;;17.48;15.00;;;15.60;99.90;;;;;;4965282;28;20433;-76
2023/07/27 06:33:16;;;;;;;16.35;13.38;;;15.60;99.90;;;;;;4973731;28;20122;-76
2023/07/27 06:35:42;;;;;;;16.15;14.43;;;15.60;99.90;;;;;;4989692;28;20615;-75
2023/07/27 06:38:08;;;;;;;15.13;13.55;;;15.60;99.90;;;;;;4989078;28;20228;-75
2023/07/27 06:40:33;;;;;;;14.77;13.18;;;15.60;99.90;;;;;;4991265;28;20129;-76
2023/07/27 06:42:59;;;;;;;14.32;12.82;;;15.70;99.90;;;;;;4990759;28;20046;-73
2023/07/27 06:45:25;;;;;;;14.93;13.40;;;15.70;99.90;;;;;;4986924;28;20050;-76
2023/07/27 06:47:50;;;;;;;13.55;12.15;;;15.70;99.90;;;;;;4974202;28;20105;-74
2023/07/27 06:50:17;;;;;;;14.75;13.23;;;15.80;99.90;;;;;;4974297;28;20042;-75
2023/07/27 06:52:43;;;;;;;14.55;13.00;;;15.80;99.90;;;;;;4991869;28;20097;-75
2023/07/27 06:55:10;;;;;;;14.10;12.60;;;15.80;99.90;;;;;;4952623;28;20609;-77
2023/07/27 06:57:36;;;;;;;14.38;12.88;;;15.80;99.90;;;;;;4973142;28;20105;-74
2023/07/27 07:00:02;;;;;;;13.20;11.98;;;15.80;99.90;;;;;;4982086;28;20050;-74
2023/07/27 07:02:28;;;;;;;13.95;12.55;;;15.80;99.90;;;;;;4966869;28;20129;-75
2023/07/27 07:04:54;;;;;;;13.65;12.25;;;15.80;99.90;;;;;;4973825;28;20129;-76
2023/07/27 07:07:19;;;;;;;14.18;12.77;;;15.90;99.90;;;;;;4963921;28;20046;-75
2023/07/27 07:09:46;;;;;;;12.63;11.32;;;15.90;99.90;;;;;;4975049;28;20077;-76
2023/07/27 07:12:12;;;;;;;13.57;12.18;;;15.90;99.90;;;;;;4990623;28;20039;-76
2023/07/27 07:14:37;;;;;;;13.75;12.35;;;15.90;99.90;;;;;;4977987;28;20439;-74
2023/07/27 07:17:04;;;;;;;12.85;11.55;;;16.00;99.90;;;;;;4984499;28;20042;-78
2023/07/27 07:19:30;;;;;;;12.88;11.57;;;15.90;99.90;;;;;;4991349;28;20139;-77
2023/07/27 07:21:56;;;;;;;12.55;11.20;;;15.90;99.90;;;;;;4963923;28;20086;-76
2023/07/27 07:24:21;;;;;;;12.13;10.52;;;16.00;99.90;;;;;;4989723;28;20088;-79
2023/07/27 07:26:47;;;;;;;12.18;10.95;;;16.00;99.90;;;;;;4974090;28;20469;-79
2023/07/27 07:29:13;;;;;;;11.73;10.52;;;16.00;99.90;;;;;;4962419;28;20042;-76
2023/07/27 07:31:39;;;;;;;12.43;11.13;;;16.00;99.90;;;;;;4967004;28;20485;-77
2023/07/27 07:34:04;;;;;;;12.07;10.88;;;16.00;99.90;;;;;;4971153;28;20038;-77
2023/07/27 07:36:30;;;;;;;10.80;9.65;;;16.10;99.90;;;;;;4982907;28;20121;-75
2023/07/27 07:38:56;;;;;;;11.93;10.73;;;16.10;99.90;;;;;;4983521;28;20129;-84
2023/07/27 07:41:22;;;;;;;12.07;10.90;;;16.10;99.90;;;;;;4986036;28;20058;-80
2023/07/27 07:43:48;;;;;;;12.90;11.77;;;16.10;99.90;;;;;;4963961;28;20207;-76
2023/07/27 07:46:14;;;;;;;12.20;11.00;;;16.10;99.90;;;;;;4965004;28;20105;-83
2023/07/27 07:48:40;;;;;;;12.90;11.70;;;16.10;99.90;;;;;;4984736;28;20051;-83
2023/07/27 07:51:14;;;;;;;12.85;11.65;;;16.10;99.90;;;;;;4980300;28;20038;-81
2023/07/27 07:53:40;;;;;;;12.00;10.90;;;16.10;99.90;;;;;;4974270;28;20117;-83
2023/07/27 07:56:12;;;;;;;12.80;11.57;;;16.20;99.90;;;;;;4970387;28;20058;-81
2023/07/27 07:58:38;;;;;;;13.15;11.95;;;16.10;99.90;;;;;;4988997;28;20117;-84
2023/07/27 08:01:04;;;;;;;11.48;10.48;;;16.20;99.90;;;;;;4979202;28;20054;-81
2023/07/27 08:03:30;;;;;;;11.48;10.27;;;16.20;99.90;;;;;;4985035;28;20062;-75
2023/07/27 08:05:55;;;;;;;10.90;9.55;;;16.20;99.90;;;;;;4962992;28;20053;-78
2023/07/27 08:08:21;;;;;;;10.90;9.90;;;16.10;99.90;;;;;;4986324;28;20850;-78
2023/07/27 08:10:47;;;;;;;10.90;9.85;;;16.10;99.90;;;;;;4979717;28;20457;-77
2023/07/27 08:13:13;;;;;;;10.10;9.13;;;16.10;99.90;;;;;;4979087;28;20038;-78
2023/07/27 08:15:39;;;;;;;10.27;8.57;;;16.10;99.90;;;;;;4977352;28;20127;-75
2023/07/27 08:18:04;;;;;;;9.82;8.88;;;16.10;99.90;;;;;;4972072;28;20053;-77
2023/07/27 08:20:30;;;;;;;9.95;8.95;;;16.10;99.90;;;;;;4967245;28;20053;-77
2023/07/27 08:22:56;;;;;;;9.55;8.65;;;16.10;99.90;;;;;;4971636;28;20038;-81
2023/07/27 08:25:22;;;;;;;8.93;8.02;;;16.10;99.90;;;;;;4981202;28;20042;-76
2023/07/27 08:27:50;;;;;;;9.02;8.13;;;16.10;99.90;;;;;;4967381;28;20529;-79
2023/07/27 08:30:16;;;;;;;9.52;8.60;;;16.10;99.90;;;;;;4972575;28;20043;-82
2023/07/27 08:32:42;;;;;;;7.60;6.90;;;16.10;99.90;;;;;;4971590;28;20624;-80
2023/07/27 08:35:08;;;;;;;9.18;8.27;;;16.20;99.90;;;;;;4988289;28;20117;-81
2023/07/27 08:37:34;;;;;;;8.63;7.20;;;16.20;99.90;;;;;;4976784;28;20134;-77
2023/07/27 08:39:59;;;;;;;7.82;7.13;;;16.20;99.90;;;;;;4986551;28;20058;-80
2023/07/27 08:42:26;;;;;;;8.40;7.53;;;16.30;99.90;;;;;;4982158;28;20057;-80
2023/07/27 08:44:51;;;;;;;7.97;7.18;;;16.30;99.90;;;;;;4972239;28;20058;-76
2023/07/27 08:47:18;;;;;;;7.45;6.75;;;16.30;99.90;;;;;;4975261;28;20447;-83
2023/07/27 08:49:45;;;;;;;7.38;6.65;;;16.30;99.90;;;;;;4970755;28;20101;-82
2023/07/27 08:52:13;;;;;;;7.80;7.07;;;16.40;99.90;;;;;;4963153;28;20039;-77
2023/07/27 08:54:39;;;;;;;7.22;6.53;;;16.40;99.90;;;;;;4963909;28;20494;-82
2023/07/27 08:57:05;;;;;;;7.00;6.40;;;16.40;99.90;;;;;;4954453;28;20035;-82
2023/07/27 08:59:30;;;;;;;7.57;6.88;;;16.40;99.90;;;;;;4974207;28;20142;-80
2023/07/27 09:01:56;;;;;;;7.60;6.85;;;16.40;99.90;;;;;;4978918;28;20041;-85
2023/07/27 09:04:22;;;;;;;6.75;6.00;;;16.40;99.90;;;;;;4978042;28;20126;-79
2023/07/27 09:06:51;;;;;;;8.02;6.63;;;16.40;99.90;;;;;;4978463;28;20051;-79
2023/07/27 09:09:25;;;;;;;7.95;7.15;;;16.40;99.90;;;;;;4971879;28;20121;-82
2023/07/27 09:11:54;;;;;;;10.88;5.97;;;16.50;99.90;;;;;;4969430;28;20082;-85
2023/07/27 09:14:20;;;;;;;8.02;6.80;;;16.50;99.90;;;;;;4960911;28;20042;-82
2023/07/27 09:16:47;;;;;;;7.78;6.68;;;16.50;99.90;;;;;;4964631;28;20390;-79
2023/07/27 09:19:15;;;;;;;6.30;5.63;;;16.60;99.90;;;;;;4961610;28;20433;-75
2023/07/27 09:21:41;;;;;;;;;;;16.60;99.90;;;;;;4981299;28;20097;-74
2023/07/27 09:24:15;;;;;;;5.88;5.25;;;16.60;99.90;;;;;;4971477;28;19991;-74
2023/07/27 09:26:46;;;;;;;4.90;4.40;;;16.70;99.90;;;;;;4980162;28;20133;-75
2023/07/27 09:29:16;;;;;;;5.57;4.97;;;16.80;99.90;;;;;;4952660;28;20050;-75
2023/07/27 09:32:05;;;;;;;5.50;5.00;;;16.90;99.90;;;;;;4976469;28;20668;-78
2023/07/27 09:34:32;;;;;;;5.70;4.43;;;17.00;99.90;;;;;;4981994;28;20089;-77
2023/07/27 09:37:02;;;;;;;4.70;4.30;;;16.90;99.90;;;;;;4979796;28;20404;-79
2023/07/27 09:39:29;;;;;;;7.63;6.57;;;16.90;99.90;;;;;;4978715;28;20125;-78
2023/07/27 09:41:55;;;;;;;6.63;5.93;;;16.90;99.90;;;;;;4977501;28;20046;-79
2023/07/27 09:44:21;;;;;;;6.45;5.85;;;16.90;99.90;;;;;;4978364;28;20097;-80
2023/07/27 09:46:47;;;;;;;7.95;7.25;;;16.90;99.90;;;;;;4958820;28;20509;-76
2023/07/27 09:49:17;;;;;;;6.68;6.07;;;17.00;99.90;;;;;;4965960;28;20046;-77
2023/07/27 09:51:44;;;;;;;11.32;10.10;;;17.00;99.90;;;;;;4966502;28;20058;-84
2023/07/27 09:54:11;;;;;;;15.70;14.20;;;17.00;99.90;;;;;;4977510;28;20490;-78
2023/07/27 09:56:38;;;;;;;17.67;16.10;;;17.10;99.90;;;;;;4963784;28;20046;-80
2023/07/27 09:59:04;;;;;;;14.55;12.85;;;17.10;99.90;;;;;;4973965;28;20101;-78
2023/07/27 10:01:30;;;;;;;13.65;12.45;;;17.10;99.90;;;;;;4982938;28;20046;-78
2023/07/27 10:03:59;;;;;;;12.80;11.75;;;17.10;99.90;;;;;;4980275;28;20050;-80
2023/07/27 10:06:26;;;;;;;14.15;12.82;;;17.20;99.90;;;;;;4959535;28;20058;-80
2023/07/27 10:08:53;;;;;;;20.05;18.15;;;17.20;99.90;;;;;;4958947;28;20081;-76
2023/07/27 10:11:30;;;;;;;15.07;13.68;;;17.30;99.90;;;;;;4970833;28;20051;-81
2023/07/27 10:13:57;;;;;;;14.93;13.63;;;17.30;99.90;;;;;;4981226;28;20054;-78
2023/07/27 10:16:28;;;;;;;15.60;14.25;;;17.40;99.90;;;;;;4968558;28;20046;-75
2023/07/27 10:18:55;;;;;;;14.50;13.20;;;17.40;99.90;;;;;;4950488;28;20054;-77
2023/07/27 10:21:22;;;;;;;17.33;15.77;;;17.40;99.90;;;;;;4977589;28;20558;-78
2023/07/27 10:24:02;;;;;;;17.48;15.88;;;17.40;99.90;;;;;;4976630;28;20579;-81
2023/07/27 10:26:46;;;;;;;11.27;10.27;;;17.40;99.90;;;;;;4979502;28;20093;-84
2023/07/27 10:29:18;;;;;;;9.02;8.23;;;17.50;99.90;;;;;;4958687;28;20461;-83
2023/07/27 10:31:58;;;;;;;10.95;9.88;;;17.50;99.90;;;;;;4966012;28;20525;-82
2023/07/27 10:34:25;;;;;;;9.70;8.80;;;17.50;99.90;;;;;;4983064;28;20050;-82
2023/07/27 10:36:57;;;;;;;8.40;7.60;;;17.60;99.90;;;;;;4980709;28;20497;-83
2023/07/27 10:39:44;;;;;;;7.70;7.00;;;17.60;99.90;;;;;;4985231;28;20568;-81
2023/07/27 10:42:18;;;;;;;6.55;5.95;;;17.70;99.90;;;;;;4967633;28;20186;-81
2023/07/27 10:44:59;;;;;;;5.70;5.20;;;17.70;99.90;;;;;;4970491;28;20047;-80
2023/07/27 10:47:25;;;;;;;5.20;4.80;;;17.70;99.90;;;;;;4977692;28;20054;-81
2023/07/27 10:49:56;;;;;;;5.20;4.80;;;17.80;99.90;;;;;;4982168;28;20398;-79
2023/07/27 10:52:32;;;;;;;5.85;5.35;;;17.80;99.90;;;;;;4968308;28;20069;-81
2023/07/27 10:54:59;;;;;;;5.20;4.80;;;17.80;99.90;;;;;;4983922;28;20043;-80
2023/07/27 10:57:30;;;;;;;4.90;4.50;;;17.80;99.90;;;;;;4950190;28;20066;-80
2023/07/27 10:59:56;;;;;;;4.60;4.20;;;17.80;99.90;;;;;;4964346;28;20054;-80
2023/07/27 11:02:26;;;;;;;4.22;3.92;;;17.80;99.90;;;;;;4980828;28;20054;-80
2023/07/27 11:04:59;;;;;;;4.50;4.20;;;17.80;99.90;;;;;;4959157;28;20062;-83
2023/07/27 11:07:38;;;;;;;4.35;4.05;;;17.80;99.90;;;;;;4981965;28;20050;-81
2023/07/27 11:10:08;;;;;;;5.55;4.68;;;17.80;99.90;;;;;;4983973;28;20385;-83
2023/07/27 11:12:51;;;;;;;5.15;4.75;;;17.80;99.90;;;;;;4964048;28;20043;-82
2023/07/27 11:15:25;;;;;;;4.28;3.88;;;17.80;99.90;;;;;;4983606;28;20038;-80
2023/07/27 11:17:53;;;;;;;4.60;4.30;;;17.80;99.90;;;;;;4967385;28;20121;-81
2023/07/27 11:20:21;;;;;;;4.40;4.00;;;17.90;99.90;;;;;;4980513;28;20129;-81
2023/07/27 11:22:48;;;;;;;3.70;3.33;;;17.90;99.90;;;;;;4981077;28;20632;-83
2023/07/27 11:25:14;;;;;;;3.55;3.28;;;17.90;99.90;;;;;;4963738;28;20161;-79
2023/07/27 11:27:46;;;;;;;2.85;2.65;;;17.90;99.90;;;;;;4983793;28;20129;-80
2023/07/27 11:30:17;;;;;;;3.60;2.50;;;18.00;99.90;;;;;;4961284;28;20120;-83
2023/07/27 11:32:53;;;;;;;3.05;2.85;;;18.00;99.90;;;;;;4977302;28;20133;-83
2023/07/27 11:35:19;;;;;;;3.40;3.10;;;18.00;99.90;;;;;;4977188;28;20043;-84
2023/07/27 11:37:45;;;;;;;3.00;2.70;;;18.10;99.90;;;;;;4957527;28;20109;-82
2023/07/27 11:40:18;;;;;;;3.35;3.05;;;18.20;99.90;;;;;;4987814;28;20074;-83
2023/07/27 11:42:44;;;;;;;2.85;2.60;;;18.20;99.90;;;;;;4982883;28;20050;-83
2023/07/27 11:45:10;;;;;;;2.58;2.38;;;18.30;99.90;;;;;;4978493;28;20080;-83
2023/07/27 11:47:40;;;;;;;2.95;2.67;;;18.40;99.90;;;;;;4987194;28;20045;-82
2023/07/27 11:50:08;;;;;;;3.00;2.80;;;18.50;99.90;;;;;;4987768;28;20034;-81
2023/07/27 11:52:39;;;;;;;2.88;2.67;;;18.50;99.90;;;;;;4995196;28;20172;-82
2023/07/27 11:55:06;;;;;;;2.90;2.70;;;18.60;99.90;;;;;;4980015;28;20050;-81
2023/07/27 11:57:32;;;;;;;3.10;2.80;;;18.70;99.90;;;;;;4977569;28;20674;-78
2023/07/27 12:00:06;;;;;;;2.63;2.42;;;18.70;99.90;;;;;;4986660;28;20395;-84
2023/07/27 12:02:33;;;;;;;3.25;2.80;;;18.80;99.90;;;;;;4985525;28;20094;-85
2023/07/27 12:05:00;;;;;;;2.90;2.70;;;18.80;99.90;;;;;;4988631;28;20035;-82
2023/07/27 12:07:31;;;;;;;3.28;2.97;;;18.80;99.90;;;;;;4966074;28;20047;-83
2023/07/27 12:09:56;;;;;;;3.25;2.80;;;18.90;99.90;;;;;;4975061;28;20470;-85
2023/07/27 12:12:22;;;;;;;3.00;2.80;;;18.90;99.90;;;;;;4973005;28;20129;-85
2023/07/27 12:14:48;;;;;;;2.72;2.42;;;19.00;99.90;;;;;;4979826;28;20037;-86
2023/07/27 12:17:14;;;;;;;3.38;3.17;;;19.00;99.90;;;;;;4974783;28;20477;-86
2023/07/27 12:19:40;;;;;;;3.92;3.05;;;19.10;99.90;;;;;;4989465;28;20057;-86
2023/07/27 12:22:05;;;;;;;3.03;2.80;;;19.20;99.90;;;;;;4965220;28;20053;-87
2023/07/27 12:24:31;;;;;;;3.60;2.88;;;19.20;99.90;;;;;;4963913;28;20126;-88
2023/07/27 12:26:58;;;;;;;2.75;2.45;;;19.30;99.90;;;;;;4976421;28;20035;-83
2023/07/27 12:29:24;;;;;;;3.15;2.85;;;19.30;99.90;;;;;;4978576;28;20134;-79
2023/07/27 12:31:50;;;;;;;2.63;2.38;;;19.30;99.90;;;;;;4973592;28;20121;-78
2023/07/27 12:34:16;;;;;;;3.75;3.45;;;19.40;99.90;;;;;;4984149;28;20120;-83
2023/07/27 12:36:41;;;;;;;2.15;2.00;;;19.40;99.90;;;;;;4982347;28;20050;-80
2023/07/27 12:39:07;;;;;;;2.75;2.00;;;19.40;99.90;;;;;;4969783;28;20046;-80